Time;durP1;ratioP1;P1;durP2;ratioP2;P2;SDS_P1;SDS_P2;PMS_P1;PMS_P2;Temp;Humidity;BMP_temperature;BMP_pressure;BME280_temperature;BME280_humidity;BME280_pressure;Samples;Min_cycle;Max_cycle;Signal;HPM_P1;HPM_P2
2022/11/29 00:01:48;;;;;;;21.48;17.63;;;6.70;99.90;;;;;;5074875;28;20029;-59
2022/11/29 00:04:34;;;;;;;25.88;18.00;;;6.70;99.90;;;;;;5074344;28;20039;-59
2022/11/29 00:07:20;;;;;;;24.88;18.52;;;6.70;99.90;;;;;;5071032;28;20111;-58
2022/11/29 00:10:07;;;;;;;25.65;18.90;;;6.60;99.90;;;;;;5082062;28;20024;-58
2022/11/29 00:12:53;;;;;;;21.17;17.20;;;6.60;99.90;;;;;;5076300;28;20115;-59
2022/11/29 00:15:39;;;;;;;23.63;18.65;;;6.60;99.90;;;;;;5078950;28;20032;-60
2022/11/29 00:18:25;;;;;;;25.38;18.35;;;6.60;99.90;;;;;;5079241;28;20490;-56
2022/11/29 00:21:11;;;;;;;23.85;17.50;;;6.70;99.90;;;;;;5090742;28;20536;-60
2022/11/29 00:23:57;;;;;;;25.88;18.60;;;6.70;99.90;;;;;;5090766;28;20036;-58
2022/11/29 00:26:43;;;;;;;26.70;19.17;;;6.70;99.90;;;;;;5067919;28;20045;-62
2022/11/29 00:29:29;;;;;;;24.55;17.92;;;6.70;99.90;;;;;;5072773;28;20025;-58
2022/11/29 00:32:15;;;;;;;24.77;19.02;;;6.70;99.90;;;;;;5076138;28;20028;-58
2022/11/29 00:35:01;;;;;;;28.52;18.55;;;6.70;99.90;;;;;;5056879;28;20028;-59
2022/11/29 00:37:47;;;;;;;24.73;18.42;;;6.70;99.90;;;;;;5092305;28;20040;-60
2022/11/29 00:40:33;;;;;;;24.52;18.98;;;6.70;99.90;;;;;;5089262;28;20024;-57
2022/11/29 00:43:19;;;;;;;24.83;17.67;;;6.60;99.90;;;;;;5091237;28;20035;-61
2022/11/29 00:46:05;;;;;;;22.10;16.65;;;6.70;99.90;;;;;;5103814;28;20032;-56
2022/11/29 00:48:51;;;;;;;24.70;17.95;;;6.70;99.90;;;;;;5091336;28;20028;-59
2022/11/29 00:51:37;;;;;;;23.63;17.67;;;6.60;99.90;;;;;;5077651;28;20079;-59
2022/11/29 00:54:23;;;;;;;25.52;18.63;;;6.60;99.90;;;;;;5069324;28;20480;-58
2022/11/29 00:57:08;;;;;;;25.08;18.38;;;6.60;99.90;;;;;;5060409;28;20489;-57
2022/11/29 00:59:54;;;;;;;23.70;18.27;;;6.70;99.90;;;;;;5074970;28;20024;-62
2022/11/29 01:02:40;;;;;;;25.45;18.83;;;6.70;99.90;;;;;;5090968;28;20165;-60
2022/11/29 01:05:40;;;;;;;25.65;18.50;;;6.70;99.90;;;;;;5090033;28;20028;-62
2022/11/29 01:08:26;;;;;;;27.85;19.50;;;6.70;99.90;;;;;;5065167;28;20020;-58
2022/11/29 01:11:20;;;;;;;28.83;21.75;;;6.70;99.90;;;;;;5056353;28;20029;-61
2022/11/29 01:14:09;;;;;;;28.73;20.85;;;6.70;99.90;;;;;;5071911;28;20400;-60
2022/11/29 01:16:55;;;;;;;27.55;19.77;;;6.70;99.90;;;;;;5057341;28;20485;-62
2022/11/29 01:19:40;;;;;;;29.70;21.38;;;6.70;99.90;;;;;;5056804;28;20044;-56
2022/11/29 01:22:26;;;;;;;28.88;20.83;;;6.70;99.90;;;;;;5070615;28;20020;-55
2022/11/29 01:25:13;;;;;;;27.60;20.25;;;6.70;99.90;;;;;;5068153;28;20056;-57
2022/11/29 01:27:59;;;;;;;33.00;21.95;;;6.70;99.90;;;;;;5089223;28;20024;-57
2022/11/29 01:30:45;;;;;;;29.98;20.88;;;6.70;99.90;;;;;;5082196;28;20021;-60
2022/11/29 01:33:31;;;;;;;31.60;21.45;;;6.70;99.90;;;;;;5080341;28;20031;-57
2022/11/29 01:36:17;;;;;;;26.38;19.77;;;6.70;99.90;;;;;;5076809;28;20063;-60
2022/11/29 01:39:04;;;;;;;31.13;21.95;;;6.70;99.90;;;;;;5076169;28;20029;-56
2022/11/29 01:41:50;;;;;;;30.60;21.45;;;6.60;99.90;;;;;;5061339;28;20386;-59
2022/11/29 01:44:36;;;;;;;29.30;21.45;;;6.60;99.90;;;;;;5074955;28;20029;-58
2022/11/29 01:47:22;;;;;;;29.70;21.67;;;6.60;99.90;;;;;;5063641;28;20017;-58
2022/11/29 01:50:09;;;;;;;28.55;21.33;;;6.50;99.90;;;;;;5085217;28;20028;-58
2022/11/29 01:52:55;;;;;;;28.50;20.13;;;6.50;99.90;;;;;;5093901;28;20488;-59
2022/11/29 01:55:49;;;;;;;29.85;21.55;;;6.50;99.90;;;;;;5062463;28;20120;-61
2022/11/29 01:58:35;;;;;;;27.88;20.67;;;6.50;99.90;;;;;;5079283;28;20069;-61
2022/11/29 02:01:21;;;;;;;32.70;21.27;;;6.50;99.90;;;;;;5084684;28;20119;-56
2022/11/29 02:04:07;;;;;;;28.05;19.98;;;6.50;99.90;;;;;;5093357;28;20032;-57
2022/11/29 02:06:53;;;;;;;27.25;20.60;;;6.50;99.90;;;;;;5093875;28;20028;-56
2022/11/29 02:09:39;;;;;;;29.58;21.10;;;6.50;99.90;;;;;;5076445;28;20031;-59
2022/11/29 02:12:40;;;;;;;29.30;20.55;;;6.50;99.90;;;;;;5096033;28;20511;-57
2022/11/29 02:15:38;;;;;;;30.95;21.95;;;6.40;99.90;;;;;;5098969;28;20550;-60
2022/11/29 02:19:11;;;;;;;33.63;23.30;;;6.40;99.90;;;;;;5093978;28;20099;-59
2022/11/29 02:22:12;;;;;;;29.65;20.60;;;6.40;99.90;;;;;;5011786;28;20033;-60
2022/11/29 02:25:16;;;;;;;32.63;21.98;;;6.40;99.90;;;;;;5012058;28;20041;-60
2022/11/29 02:28:24;;;;;;;28.13;20.40;;;6.40;99.90;;;;;;5073583;28;20028;-60
2022/11/29 02:31:46;;;;;;;30.83;20.92;;;6.40;99.90;;;;;;5067131;28;20085;-61
2022/11/29 02:34:51;;;;;;;30.85;21.05;;;6.40;99.90;;;;;;5078820;28;20048;-61
2022/11/29 02:37:40;;;;;;;32.67;22.70;;;6.40;99.90;;;;;;5075035;28;20071;-60
2022/11/29 02:40:26;;;;;;;32.30;22.95;;;6.40;99.90;;;;;;5059087;28;20251;-61
2022/11/29 02:43:33;;;;;;;30.88;22.23;;;6.40;99.90;;;;;;5093653;28;20024;-60
2022/11/29 02:46:22;;;;;;;34.97;22.20;;;6.40;99.90;;;;;;5089856;28;20641;-60
2022/11/29 02:49:45;;;;;;;34.47;23.80;;;6.40;99.90;;;;;;5065341;28;20036;-61
2022/11/29 02:52:47;;;;;;;34.17;23.15;;;6.40;99.90;;;;;;5083231;28;20028;-60
2022/11/29 02:56:06;;;;;;;32.17;23.42;;;6.40;99.90;;;;;;5075151;28;20029;-61
2022/11/29 02:59:19;;;;;;;33.97;23.10;;;6.40;99.90;;;;;;5085382;28;20089;-60
2022/11/29 03:02:32;;;;;;;37.00;24.55;;;6.40;99.90;;;;;;5075483;28;20089;-61
2022/11/29 03:05:28;;;;;;;34.17;23.98;;;6.50;99.90;;;;;;5075208;28;20472;-58
2022/11/29 03:08:24;;;;;;;35.75;24.60;;;6.50;99.90;;;;;;5075059;28;20033;-61
2022/11/29 03:11:27;;;;;;;30.42;21.75;;;6.60;99.90;;;;;;5081303;28;20028;-61
2022/11/29 03:14:20;;;;;;;38.25;27.00;;;6.50;99.90;;;;;;5090589;28;20020;-61
2022/11/29 03:17:36;;;;;;;33.95;23.58;;;6.50;99.90;;;;;;5092587;28;20066;-57
2022/11/29 03:20:34;;;;;;;33.17;23.25;;;6.50;99.90;;;;;;5052598;28;20039;-58
2022/11/29 03:23:32;;;;;;;35.70;23.98;;;6.40;99.90;;;;;;5084691;28;20115;-60
2022/11/29 03:26:36;;;;;;;40.53;24.67;;;6.50;99.90;;;;;;5092064;28;20036;-57
2022/11/29 03:29:27;;;;;;;37.53;25.02;;;6.50;99.90;;;;;;5072087;28;20150;-58
2022/11/29 03:32:33;;;;;;;36.25;24.52;;;6.50;99.90;;;;;;5088813;28;20020;-58
2022/11/29 03:35:35;;;;;;;35.67;24.33;;;6.50;99.90;;;;;;5092971;28;20028;-58
2022/11/29 03:38:43;;;;;;;36.50;24.73;;;6.50;99.90;;;;;;5072172;28;20500;-60
2022/11/29 03:42:01;;;;;;;36.33;24.52;;;6.50;99.90;;;;;;5074112;28;20051;-61
2022/11/29 03:45:06;;;;;;;39.13;25.25;;;6.40;99.90;;;;;;5090162;28;20034;-59
2022/11/29 03:48:21;;;;;;;35.88;24.60;;;6.50;99.90;;;;;;5087481;28;20052;-61
2022/11/29 03:51:18;;;;;;;37.15;24.25;;;6.50;99.90;;;;;;5075057;28;20408;-61
2022/11/29 03:54:11;;;;;;;34.40;24.10;;;6.50;99.90;;;;;;5084688;28;20377;-61
2022/11/29 03:56:58;;;;;;;36.08;25.05;;;6.50;99.90;;;;;;5074432;28;20046;-61
2022/11/29 04:00:00;;;;;;;37.17;26.67;;;6.50;99.90;;;;;;5075032;28;20029;-63
2022/11/29 04:03:09;;;;;;;35.97;24.55;;;6.50;99.90;;;;;;5091188;28;20024;-61
2022/11/29 04:06:14;;;;;;;37.42;24.88;;;6.60;99.90;;;;;;5080737;28;20115;-62
2022/11/29 04:09:36;;;;;;;36.03;25.15;;;6.60;99.90;;;;;;5076058;28;20070;-61
2022/11/29 04:12:25;;;;;;;38.88;25.70;;;6.60;99.90;;;;;;5071656;28;20402;-60
2022/11/29 04:16:02;;;;;;;36.88;24.55;;;6.60;99.90;;;;;;5072413;28;20567;-62
2022/11/29 04:19:06;;;;;;;;;;;6.60;99.90;;;;;;5044817;28;20416;-60
2022/11/29 04:22:06;;;;;;;34.53;24.52;;;6.60;99.90;;;;;;5076785;28;19908;-60
2022/11/29 04:24:58;;;;;;;38.33;25.70;;;6.60;99.90;;;;;;5080653;28;20028;-62
2022/11/29 04:28:02;;;;;;;36.92;24.67;;;6.60;99.90;;;;;;5073040;28;20025;-60
2022/11/29 04:31:22;;;;;;;37.78;25.63;;;6.60;99.90;;;;;;5088983;28;20496;-59
2022/11/29 04:34:32;;;;;;;38.53;25.52;;;6.60;99.90;;;;;;5074907;28;20024;-60
2022/11/29 04:37:30;;;;;;;41.13;26.08;;;6.60;99.90;;;;;;5073604;28;20063;-61
2022/11/29 04:40:35;;;;;;;37.13;25.40;;;6.60;99.90;;;;;;5071952;28;20024;-60
2022/11/29 04:43:51;;;;;;;34.78;25.65;;;6.60;99.90;;;;;;5071677;28;20028;-59
2022/11/29 04:46:54;;;;;;;37.25;26.35;;;6.60;99.90;;;;;;5070283;28;20544;-58
2022/11/29 04:50:12;;;;;;;34.22;24.73;;;6.60;99.90;;;;;;5070261;28;20093;-57
2022/11/29 04:53:01;;;;;;;36.88;24.63;;;6.50;99.90;;;;;;5070042;28;20035;-58
2022/11/29 04:56:13;;;;;;;38.13;25.13;;;6.50;99.90;;;;;;5064936;28;20043;-60
2022/11/29 04:59:40;;;;;;;37.85;25.77;;;6.60;99.90;;;;;;5071325;28;20074;-58
2022/11/29 05:02:36;;;;;;;41.35;25.88;;;6.60;99.90;;;;;;5071223;28;20028;-57
2022/11/29 05:05:46;;;;;;;40.70;26.48;;;6.60;99.90;;;;;;5083794;28;20446;-56
2022/11/29 05:09:00;;;;;;;39.22;26.08;;;6.60;99.90;;;;;;5074184;28;20048;-59
2022/11/29 05:11:52;;;;;;;41.55;27.25;;;6.60;99.90;;;;;;5071816;28;20047;-60
2022/11/29 05:15:02;;;;;;;38.90;26.10;;;6.60;99.90;;;;;;5088293;28;20032;-60
2022/11/29 05:18:26;;;;;;;36.85;25.05;;;6.60;99.90;;;;;;5073373;28;20485;-60
2022/11/29 05:21:46;;;;;;;38.28;26.35;;;6.60;99.90;;;;;;5084193;28;20027;-55
2022/11/29 05:24:37;;;;;;;39.10;26.10;;;6.60;99.90;;;;;;5078021;28;20646;-59
2022/11/29 05:27:56;;;;;;;42.05;26.20;;;6.60;99.90;;;;;;5090596;28;20020;-60
2022/11/29 05:31:15;;;;;;;41.33;28.10;;;6.60;99.90;;;;;;5036689;28;20036;-59
2022/11/29 05:34:20;;;;;;;37.28;25.67;;;6.60;99.90;;;;;;5071051;28;20060;-59
2022/11/29 05:37:17;;;;;;;38.22;26.15;;;6.70;99.90;;;;;;5066819;28;20052;-61
2022/11/29 05:40:31;;;;;;;42.75;26.75;;;6.60;99.90;;;;;;5071292;28;20493;-61
2022/11/29 05:43:42;;;;;;;43.38;26.52;;;6.40;99.90;;;;;;5077843;28;20035;-59
2022/11/29 05:46:46;;;;;;;39.28;27.08;;;6.40;99.90;;;;;;5081789;28;20033;-58
2022/11/29 05:49:40;;;;;;;43.50;29.52;;;6.40;99.90;;;;;;5083256;28;20081;-59
2022/11/29 05:53:09;;;;;;;41.25;27.05;;;6.40;99.90;;;;;;5072950;28;20016;-60
2022/11/29 05:56:08;;;;;;;43.58;28.60;;;6.50;99.90;;;;;;5071749;28;20029;-58
2022/11/29 05:59:01;;;;;;;41.75;27.27;;;6.50;99.90;;;;;;5080333;28;20111;-61
2022/11/29 06:02:00;;;;;;;42.50;27.23;;;6.60;99.90;;;;;;5089468;28;20035;-60
2022/11/29 06:05:18;;;;;;;40.72;26.15;;;6.60;99.90;;;;;;5060315;28;20036;-60
2022/11/29 06:08:13;;;;;;;41.85;26.08;;;6.60;99.90;;;;;;5076674;28;20066;-61
2022/11/29 06:11:11;;;;;;;44.55;28.35;;;6.60;99.90;;;;;;5079205;28;20515;-57
2022/11/29 06:14:06;;;;;;;45.92;29.65;;;6.60;99.90;;;;;;5092850;28;20035;-60
2022/11/29 06:17:11;;;;;;;39.90;28.05;;;6.60;99.90;;;;;;5075293;28;20043;-61
2022/11/29 06:20:33;;;;;;;38.90;26.42;;;6.60;99.90;;;;;;5083783;28;20523;-60
2022/11/29 06:23:42;;;;;;;42.55;27.60;;;6.60;99.90;;;;;;5087247;28;20032;-58
2022/11/29 06:26:53;;;;;;;41.08;26.60;;;6.50;99.90;;;;;;5076807;28;20035;-55
2022/11/29 06:29:47;;;;;;;36.60;25.67;;;6.50;99.90;;;;;;5074618;28;20028;-62
2022/11/29 06:32:44;;;;;;;42.35;27.50;;;6.40;99.90;;;;;;5091277;28;20024;-61
2022/11/29 06:36:06;;;;;;;40.25;27.27;;;6.40;99.90;;;;;;5085944;28;20115;-61
2022/11/29 06:38:52;;;;;;;36.35;25.00;;;6.40;99.90;;;;;;5058904;28;20048;-62
2022/11/29 06:41:38;;;;;;;39.95;26.30;;;6.40;99.90;;;;;;5089422;28;20027;-60
2022/11/29 06:44:24;;;;;;;41.85;26.35;;;6.40;99.90;;;;;;5079859;28;20085;-62
2022/11/29 06:47:27;;;;;;;36.97;24.88;;;6.50;99.90;;;;;;5073258;28;20036;-57
2022/11/29 06:50:36;;;;;;;37.92;25.75;;;6.50;99.90;;;;;;5084446;28;20400;-60
2022/11/29 06:53:45;;;;;;;42.10;27.92;;;6.50;99.90;;;;;;5081243;28;20028;-61
2022/11/29 06:56:44;;;;;;;36.90;25.05;;;6.60;99.90;;;;;;5074397;28;20036;-60
2022/11/29 06:59:41;;;;;;;38.00;25.88;;;6.50;99.90;;;;;;5085392;28;20039;-62
2022/11/29 07:02:34;;;;;;;38.03;25.00;;;6.50;99.90;;;;;;5091745;28;20028;-59
2022/11/29 07:05:34;;;;;;;36.70;24.30;;;6.60;99.90;;;;;;5059563;28;20078;-63
2022/11/29 07:08:22;;;;;;;42.33;25.38;;;6.60;99.90;;;;;;5089063;28;20028;-58
2022/11/29 07:11:10;;;;;;;36.45;25.17;;;6.60;99.90;;;;;;5072744;28;20408;-58
2022/11/29 07:13:59;;;;;;;35.15;24.90;;;6.60;99.90;;;;;;5076042;28;20029;-63
2022/11/29 07:17:14;;;;;;;38.05;25.02;;;6.60;99.90;;;;;;5078669;28;20036;-60
2022/11/29 07:20:28;;;;;;;41.63;25.33;;;6.60;99.90;;;;;;5074321;28;20489;-61
2022/11/29 07:23:29;;;;;;;38.63;24.58;;;6.60;99.90;;;;;;5074920;28;20046;-60
2022/11/29 07:26:20;;;;;;;37.53;24.95;;;6.70;99.90;;;;;;5086488;28;20108;-60
2022/11/29 07:29:47;;;;;;;44.47;26.63;;;6.60;99.90;;;;;;5072665;28;20392;-63
2022/11/29 07:32:53;;;;;;;;;;;6.60;99.90;;;;;;5084445;28;20020;-63
2022/11/29 07:35:50;;;;;;;43.08;26.48;;;6.70;99.90;;;;;;5071062;28;19948;-62
2022/11/29 07:38:54;;;;;;;35.78;23.65;;;6.70;99.90;;;;;;5072505;28;20488;-60
2022/11/29 07:41:51;;;;;;;37.63;25.55;;;6.80;99.90;;;;;;5071669;28;20020;-61
2022/11/29 07:44:53;;;;;;;36.08;24.90;;;6.80;99.90;;;;;;5073495;28;20047;-60
2022/11/29 07:47:39;;;;;;;37.03;23.73;;;6.80;99.90;;;;;;5061734;28;20101;-63
2022/11/29 07:50:26;;;;;;;59.65;36.47;;;6.70;99.90;;;;;;5058632;28;20037;-59
2022/11/29 07:53:20;;;;;;;47.22;30.73;;;6.70;99.90;;;;;;5073292;28;20039;-62
2022/11/29 07:56:08;;;;;;;41.60;27.70;;;6.80;99.90;;;;;;5062915;28;20419;-61
2022/11/29 07:58:54;;;;;;;38.92;25.23;;;6.80;99.90;;;;;;5092369;28;20028;-61
2022/11/29 08:01:40;;;;;;;34.90;24.23;;;6.80;99.90;;;;;;5089733;28;20028;-61
2022/11/29 08:04:27;;;;;;;37.83;24.20;;;6.80;99.90;;;;;;5093353;28;20024;-60
2022/11/29 08:07:12;;;;;;;39.30;24.98;;;6.80;99.90;;;;;;5091024;28;20040;-61
2022/11/29 08:09:59;;;;;;;38.33;26.52;;;6.80;99.90;;;;;;5084877;28;20103;-61
2022/11/29 08:12:49;;;;;;;32.45;24.05;;;6.90;99.90;;;;;;5070676;28;20032;-61
2022/11/29 08:15:35;;;;;;;46.58;32.00;;;6.90;99.90;;;;;;5066736;28;20074;-61
2022/11/29 08:18:21;;;;;;;31.02;22.88;;;7.00;99.90;;;;;;5057920;28;20024;-61
2022/11/29 08:21:07;;;;;;;36.38;25.25;;;7.00;99.90;;;;;;5075457;28;20052;-62
2022/11/29 08:23:53;;;;;;;38.08;25.42;;;7.00;99.90;;;;;;5083741;28;20028;-63
2022/11/29 08:26:39;;;;;;;40.60;25.42;;;7.00;99.90;;;;;;5079173;28;20043;-62
2022/11/29 08:29:25;;;;;;;38.03;25.02;;;7.00;99.90;;;;;;5078388;28;20021;-62
2022/11/29 08:32:11;;;;;;;39.58;26.42;;;7.00;99.90;;;;;;5090121;28;20024;-61
2022/11/29 08:34:57;;;;;;;36.35;23.90;;;7.00;99.90;;;;;;5085174;28;20102;-62
2022/11/29 08:37:43;;;;;;;38.47;23.48;;;7.10;99.90;;;;;;5112435;28;20034;-63
2022/11/29 08:40:29;;;;;;;36.20;24.77;;;7.10;99.90;;;;;;5084421;28;20657;-62
2022/11/29 08:43:15;;;;;;;37.00;23.90;;;7.20;99.90;;;;;;5090628;28;20119;-61
2022/11/29 08:46:01;;;;;;;37.50;25.05;;;7.10;99.90;;;;;;5057401;28;20035;-61
2022/11/29 08:48:48;;;;;;;36.88;24.55;;;7.10;99.90;;;;;;5083037;28;20081;-61
2022/11/29 08:51:34;;;;;;;44.45;24.90;;;7.20;99.90;;;;;;5088074;28;20016;-61
2022/11/29 08:54:19;;;;;;;42.05;25.23;;;7.20;99.90;;;;;;5091562;28;20056;-61
2022/11/29 08:57:06;;;;;;;35.80;25.23;;;7.20;99.90;;;;;;5092175;28;20048;-63
2022/11/29 08:59:51;;;;;;;36.17;24.02;;;7.20;99.90;;;;;;5088477;28;20686;-63
2022/11/29 09:02:38;;;;;;;37.45;25.73;;;7.10;99.90;;;;;;5087025;28;20547;-61
2022/11/29 09:05:23;;;;;;;37.28;24.83;;;7.20;99.90;;;;;;5091374;28;20396;-62
2022/11/29 09:08:09;;;;;;;33.97;23.05;;;7.10;99.90;;;;;;5091953;28;20442;-61
2022/11/29 09:10:55;;;;;;;34.60;23.73;;;7.20;99.90;;;;;;5091499;28;20023;-62
2022/11/29 09:13:47;;;;;;;34.10;23.13;;;7.30;99.90;;;;;;5076974;28;20104;-63
2022/11/29 09:16:35;;;;;;;42.28;23.85;;;7.30;99.90;;;;;;5089578;28;20052;-62
2022/11/29 09:19:21;;;;;;;36.70;26.38;;;7.30;99.90;;;;;;5091389;28;20046;-60
2022/11/29 09:22:07;;;;;;;38.15;24.67;;;7.30;99.90;;;;;;5063141;28;20519;-62
2022/11/29 09:24:53;;;;;;;35.20;25.45;;;7.30;99.90;;;;;;5091610;28;20074;-63
2022/11/29 09:27:40;;;;;;;35.22;26.52;;;7.40;99.90;;;;;;5092050;28;20046;-63
2022/11/29 09:30:29;;;;;;;35.42;24.63;;;7.40;99.90;;;;;;5092552;28;20030;-63
2022/11/29 09:33:15;;;;;;;37.40;24.75;;;7.40;99.90;;;;;;5093101;28;20033;-60
2022/11/29 09:36:02;;;;;;;35.60;24.33;;;7.40;99.90;;;;;;5091024;28;20111;-62
2022/11/29 09:38:48;;;;;;;36.42;25.75;;;7.50;99.90;;;;;;5092381;28;20028;-60
2022/11/29 09:41:58;;;;;;;37.17;25.92;;;7.60;99.90;;;;;;5091473;28;20078;-62
2022/11/29 09:44:44;;;;;;;33.20;23.30;;;7.60;99.90;;;;;;5094406;28;20028;-60
2022/11/29 09:47:52;;;;;;;34.88;24.80;;;7.60;99.90;;;;;;5097310;28;20510;-61
2022/11/29 09:50:50;;;;;;;34.88;23.92;;;7.60;99.90;;;;;;5080024;28;20032;-62
2022/11/29 09:54:23;;;;;;;39.60;25.63;;;7.70;99.90;;;;;;5083533;28;20035;-61
2022/11/29 09:57:09;;;;;;;37.78;24.52;;;7.70;99.90;;;;;;5074568;28;20479;-57
2022/11/29 10:00:05;;;;;;;34.72;23.95;;;7.70;99.90;;;;;;5094555;28;20495;-59
2022/11/29 10:03:01;;;;;;;34.38;23.77;;;7.80;99.90;;;;;;5094121;28;20021;-61
2022/11/29 10:05:55;;;;;;;56.70;26.73;;;7.90;99.90;;;;;;5094662;28;20734;-63
2022/11/29 10:09:00;;;;;;;50.97;28.48;;;7.80;99.90;;;;;;5094097;28;20058;-60
2022/11/29 10:12:06;;;;;;;43.30;27.67;;;7.80;99.90;;;;;;5094200;28;20016;-58
2022/11/29 10:15:03;;;;;;;;;;;7.60;99.90;;;;;;5095595;28;20016;-60
2022/11/29 10:17:55;;;;;;;46.97;28.50;;;7.60;99.90;;;;;;5094397;28;19908;-60
2022/11/29 10:20:43;;;;;;;44.90;28.70;;;7.60;99.90;;;;;;5094304;28;20504;-63
2022/11/29 10:23:38;;;;;;;49.28;26.58;;;7.50;99.90;;;;;;5093585;28;20032;-61
2022/11/29 10:26:25;;;;;;;38.15;26.83;;;7.60;99.90;;;;;;5093517;28;20103;-58
2022/11/29 10:29:15;;;;;;;40.97;25.73;;;7.60;99.90;;;;;;5093974;28;20515;-60
2022/11/29 10:32:04;;;;;;;43.67;26.77;;;7.50;99.90;;;;;;5094242;28;20403;-58
2022/11/29 10:34:50;;;;;;;38.15;27.52;;;7.50;99.90;;;;;;5094093;28;20020;-62
2022/11/29 10:37:37;;;;;;;38.47;26.33;;;7.60;99.90;;;;;;5093897;28;20016;-60
2022/11/29 10:40:32;;;;;;;39.53;27.13;;;7.60;99.90;;;;;;5093757;28;20032;-60
2022/11/29 10:43:19;;;;;;;41.78;26.83;;;7.60;99.90;;;;;;5095107;28;20192;-61
2022/11/29 10:46:38;;;;;;;40.30;27.15;;;7.50;99.90;;;;;;5095669;28;20028;-60
2022/11/29 10:49:26;;;;;;;46.75;27.08;;;7.50;99.90;;;;;;5087896;28;20039;-62
2022/11/29 10:52:19;;;;;;;43.78;27.05;;;7.50;99.90;;;;;;5067386;28;20028;-60
2022/11/29 10:55:12;;;;;;;47.58;27.02;;;7.40;99.90;;;;;;5097022;28;20079;-61
2022/11/29 10:58:11;;;;;;;46.88;27.25;;;7.50;99.90;;;;;;5094469;28;20028;-60
2022/11/29 11:00:58;;;;;;;40.38;26.55;;;7.60;99.90;;;;;;5095680;28;20021;-60
2022/11/29 11:03:56;;;;;;;41.25;27.67;;;7.60;99.90;;;;;;5080383;28;20404;-58
2022/11/29 11:06:55;;;;;;;44.30;27.85;;;7.60;99.90;;;;;;5095643;28;20083;-60
2022/11/29 11:09:47;;;;;;;44.72;28.55;;;7.60;99.90;;;;;;5095018;28;20028;-60
2022/11/29 11:12:35;;;;;;;40.05;28.20;;;7.60;99.90;;;;;;5080862;28;20048;-62
2022/11/29 11:15:30;;;;;;;44.92;28.17;;;7.60;99.90;;;;;;5095610;28;20034;-60
2022/11/29 11:18:22;;;;;;;45.23;29.30;;;7.70;99.90;;;;;;5096036;28;20157;-59
2022/11/29 11:21:11;;;;;;;44.80;28.33;;;7.60;99.90;;;;;;5095587;28;20028;-58
2022/11/29 11:24:01;;;;;;;48.67;28.60;;;7.60;99.90;;;;;;5079903;28;20067;-61
2022/11/29 11:26:47;;;;;;;42.72;27.05;;;7.60;99.90;;;;;;5095708;28;20020;-62
2022/11/29 11:29:43;;;;;;;45.13;28.92;;;7.60;99.90;;;;;;5095618;28;20469;-59
2022/11/29 11:32:29;;;;;;;;;;;7.60;99.90;;;;;;5094775;28;20025;-60
2022/11/29 11:35:23;;;;;;;37.33;26.55;;;7.60;99.90;;;;;;5094853;28;19904;-61
2022/11/29 11:38:15;;;;;;;41.20;26.85;;;7.60;99.90;;;;;;5094353;28;20055;-61
2022/11/29 11:41:22;;;;;;;38.08;26.42;;;7.60;99.90;;;;;;5093447;28;20050;-59
2022/11/29 11:44:44;;;;;;;83.47;51.47;;;7.60;99.90;;;;;;5094581;28;20084;-61
2022/11/29 11:47:33;;;;;;;48.85;32.42;;;7.70;99.90;;;;;;5094604;28;20020;-62
2022/11/29 11:50:53;;;;;;;41.95;29.83;;;7.70;99.90;;;;;;5080409;28;20590;-61
2022/11/29 11:53:39;;;;;;;39.00;27.70;;;7.70;99.90;;;;;;5053562;28;20095;-59
2022/11/29 11:56:34;;;;;;;44.58;28.33;;;7.70;99.90;;;;;;5093628;28;20031;-59
2022/11/29 11:59:23;;;;;;;49.85;29.85;;;7.80;99.90;;;;;;5094839;28;20537;-59
2022/11/29 12:02:35;;;;;;;42.22;30.75;;;7.70;99.90;;;;;;5093386;28;20035;-61
2022/11/29 12:05:22;;;;;;;39.33;28.20;;;7.80;99.90;;;;;;5094096;28;20020;-60
2022/11/29 12:08:11;;;;;;;46.58;29.90;;;7.80;99.90;;;;;;5094100;28;20028;-59
2022/11/29 12:11:03;;;;;;;49.22;33.97;;;7.80;99.90;;;;;;5094391;28;20025;-60
2022/11/29 12:13:56;;;;;;;46.80;33.83;;;7.90;99.90;;;;;;5093811;28;20028;-59
2022/11/29 12:16:46;;;;;;;47.20;30.73;;;7.90;99.90;;;;;;5093310;28;20025;-61
2022/11/29 12:19:41;;;;;;;47.05;30.88;;;7.90;99.90;;;;;;5084584;28;20057;-61
2022/11/29 12:22:34;;;;;;;41.90;29.35;;;7.80;99.90;;;;;;5099956;28;20023;-59
2022/11/29 12:25:25;;;;;;;46.38;29.60;;;7.80;99.90;;;;;;5100749;28;20073;-57
2022/11/29 12:28:13;;;;;;;42.90;29.02;;;7.80;99.90;;;;;;5100796;28;20047;-57
2022/11/29 12:31:05;;;;;;;45.03;31.23;;;7.90;99.90;;;;;;5096566;28;20619;-54
2022/11/29 12:34:09;;;;;;;42.92;30.40;;;7.90;99.90;;;;;;5110873;28;20016;-56
2022/11/29 12:37:29;;;;;;;40.40;29.45;;;7.90;99.90;;;;;;5096643;28;20024;-55
2022/11/29 12:40:34;;;;;;;41.40;29.98;;;7.90;99.90;;;;;;5104100;28;20023;-59
2022/11/29 12:44:02;;;;;;;40.70;28.85;;;8.00;99.90;;;;;;5109839;28;20023;-56
2022/11/29 12:47:04;;;;;;;41.42;28.45;;;8.10;99.90;;;;;;5109138;28;20034;-58
2022/11/29 12:50:22;;;;;;;39.15;27.63;;;8.00;99.90;;;;;;5109042;28;20016;-56
2022/11/29 12:53:08;;;;;;;45.80;29.30;;;8.10;99.90;;;;;;5109909;28;20027;-59
2022/11/29 12:56:06;;;;;;;48.83;29.08;;;8.00;99.90;;;;;;5110323;28;20023;-56
2022/11/29 12:59:34;;;;;;;52.67;29.17;;;8.00;99.90;;;;;;5110980;28;20020;-59
2022/11/29 13:02:33;;;;;;;45.15;30.40;;;8.00;99.90;;;;;;5109077;28;20019;-53
2022/11/29 13:05:28;;;;;;;43.17;28.73;;;8.10;99.90;;;;;;5110165;28;20043;-59
2022/11/29 13:08:55;;;;;;;41.15;29.33;;;8.10;99.90;;;;;;5069549;28;20021;-55
2022/11/29 13:12:01;;;;;;;42.25;29.48;;;8.10;99.90;;;;;;5080344;28;20119;-56
2022/11/29 13:14:56;;;;;;;41.17;28.13;;;8.10;99.90;;;;;;5089907;28;20044;-58
2022/11/29 13:17:49;;;;;;;41.78;28.95;;;8.10;99.90;;;;;;5071113;28;20020;-57
2022/11/29 13:21:00;;;;;;;39.75;28.08;;;8.10;99.90;;;;;;5069060;28;20025;-55
2022/11/29 13:23:57;;;;;;;41.55;27.80;;;8.10;99.90;;;;;;5073385;28;20081;-60
2022/11/29 13:26:44;;;;;;;43.55;28.30;;;8.10;99.90;;;;;;5089047;28;20028;-58
2022/11/29 13:29:30;;;;;;;45.17;28.25;;;8.10;99.90;;;;;;5089368;28;20030;-60
2022/11/29 13:32:41;;;;;;;47.05;30.73;;;8.10;99.90;;;;;;5089407;28;20495;-58
2022/11/29 13:35:47;;;;;;;43.50;29.70;;;8.10;99.90;;;;;;5089763;28;20174;-59
2022/11/29 13:38:49;;;;;;;64.97;42.35;;;8.10;99.90;;;;;;5089601;28;20117;-58
2022/11/29 13:42:20;;;;;;;62.05;41.50;;;8.00;99.90;;;;;;5080139;28;20468;-60
2022/11/29 13:45:34;;;;;;;50.50;34.08;;;8.00;99.90;;;;;;5005376;28;20038;-57
2022/11/29 13:48:47;;;;;;;45.72;30.77;;;8.00;99.90;;;;;;5070923;28;20088;-57
2022/11/29 13:51:36;;;;;;;45.95;29.38;;;8.00;99.90;;;;;;5069068;28;20021;-61
2022/11/29 13:54:30;;;;;;;50.08;30.88;;;8.00;99.90;;;;;;5055053;28;20115;-57
2022/11/29 13:57:16;;;;;;;49.55;31.52;;;7.90;99.90;;;;;;5069915;28;20029;-55
2022/11/29 14:00:04;;;;;;;47.80;30.67;;;7.80;99.90;;;;;;5054895;28;20524;-55
2022/11/29 14:02:50;;;;;;;56.95;36.95;;;7.90;99.90;;;;;;5085788;28;20032;-57
2022/11/29 14:05:38;;;;;;;47.47;31.23;;;7.90;99.90;;;;;;5080525;28;20032;-57
2022/11/29 14:08:50;;;;;;;50.13;31.85;;;7.90;99.90;;;;;;5092447;28;20025;-58
2022/11/29 14:12:00;;;;;;;47.97;29.83;;;7.90;99.90;;;;;;5107255;28;20725;-54
2022/11/29 14:15:14;;;;;;;47.50;31.90;;;7.90;99.90;;;;;;5071481;28;20070;-56
2022/11/29 14:18:07;;;;;;;42.60;29.90;;;7.90;99.90;;;;;;5089407;28;20044;-57
2022/11/29 14:20:55;;;;;;;46.25;30.35;;;8.00;99.90;;;;;;5088726;28;20153;-57
2022/11/29 14:23:43;;;;;;;48.60;30.85;;;8.00;99.90;;;;;;5089609;28;20044;-56
2022/11/29 14:26:29;;;;;;;48.65;32.03;;;8.00;99.90;;;;;;5083916;28;20036;-57
2022/11/29 14:29:48;;;;;;;45.80;29.73;;;8.00;99.90;;;;;;5109973;28;20561;-61
2022/11/29 14:32:49;;;;;;;42.28;28.55;;;8.00;99.90;;;;;;5078598;28;20028;-59
2022/11/29 14:35:59;;;;;;;48.42;30.10;;;8.00;99.90;;;;;;5098926;28;20028;-55
2022/11/29 14:39:11;;;;;;;45.10;29.52;;;8.10;99.90;;;;;;5113247;28;20483;-60
2022/11/29 14:42:18;;;;;;;42.85;28.65;;;8.10;99.90;;;;;;5078554;28;20031;-56
2022/11/29 14:45:25;;;;;;;42.45;28.20;;;8.10;99.90;;;;;;5062793;28;20107;-60
2022/11/29 14:48:26;;;;;;;40.85;27.65;;;8.10;99.90;;;;;;5072581;28;20033;-59
2022/11/29 14:51:18;;;;;;;40.05;28.05;;;8.10;99.90;;;;;;5058373;28;20028;-57
2022/11/29 14:54:18;;;;;;;37.67;27.05;;;8.00;99.90;;;;;;5058237;28;20025;-57
2022/11/29 14:57:41;;;;;;;41.22;27.40;;;8.00;99.90;;;;;;5056767;28;20055;-59
2022/11/29 15:00:35;;;;;;;35.30;25.83;;;8.00;99.90;;;;;;5099154;28;20085;-55
2022/11/29 15:03:23;;;;;;;39.33;26.85;;;8.10;99.90;;;;;;5099393;28;20514;-56
2022/11/29 15:06:25;;;;;;;45.38;31.90;;;8.00;99.90;;;;;;5096682;28;20028;-56
2022/11/29 15:09:17;;;;;;;47.67;34.55;;;8.00;99.90;;;;;;5074315;28;20057;-57
2022/11/29 15:12:11;;;;;;;47.80;32.15;;;8.00;99.90;;;;;;5091641;28;20032;-56